sensor_id;sensor_type;location;lat;lon;timestamp;temperature;humidity
9640;DHT22;51745;50.872;4.732;2023-03-01T00:02:18;-1.40;99.90
9640;DHT22;51745;50.872;4.732;2023-03-01T00:05:10;-1.60;99.90
9640;DHT22;51745;50.872;4.732;2023-03-01T00:08:01;-1.60;99.90
9640;DHT22;51745;50.872;4.732;2023-03-01T00:10:49;-4.10;99.90
9640;DHT22;51745;50.872;4.732;2023-03-01T00:13:37;-1.80;99.90
9640;DHT22;51745;50.872;4.732;2023-03-01T00:16:26;-1.70;99.90
9640;DHT22;51745;50.872;4.732;2023-03-01T00:19:16;-1.70;99.90
9640;DHT22;51745;50.872;4.732;2023-03-01T00:22:06;-1.70;99.90
9640;DHT22;51745;50.872;4.732;2023-03-01T00:24:56;-1.80;99.90
9640;DHT22;51745;50.872;4.732;2023-03-01T00:27:44;-1.80;99.90
9640;DHT22;51745;50.872;4.732;2023-03-01T00:30:35;-1.70;99.90
9640;DHT22;51745;50.872;4.732;2023-03-01T00:33:23;-1.80;99.90
9640;DHT22;51745;50.872;4.732;2023-03-01T00:36:11;-2.00;99.90
9640;DHT22;51745;50.872;4.732;2023-03-01T00:39:09;-2.00;99.90
9640;DHT22;51745;50.872;4.732;2023-03-01T00:41:58;-2.10;99.90
9640;DHT22;51745;50.872;4.732;2023-03-01T00:44:46;-2.20;99.90
9640;DHT22;51745;50.872;4.732;2023-03-01T00:47:34;-2.20;99.90
9640;DHT22;51745;50.872;4.732;2023-03-01T00:50:21;-2.20;99.90
9640;DHT22;51745;50.872;4.732;2023-03-01T00:53:09;-2.20;99.90
9640;DHT22;51745;50.872;4.732;2023-03-01T00:55:58;-2.30;99.90
9640;DHT22;51745;50.872;4.732;2023-03-01T00:58:46;-2.20;99.90
9640;DHT22;51745;50.872;4.732;2023-03-01T01:01:34;-2.30;99.90
9640;DHT22;51745;50.872;4.732;2023-03-01T01:04:21;-2.30;99.90
9640;DHT22;51745;50.872;4.732;2023-03-01T01:07:10;-2.40;99.90
9640;DHT22;51745;50.872;4.732;2023-03-01T01:09:58;-2.40;99.90
9640;DHT22;51745;50.872;4.732;2023-03-01T01:12:51;-2.40;99.90
9640;DHT22;51745;50.872;4.732;2023-03-01T01:15:39;-2.40;99.90
9640;DHT22;51745;50.872;4.732;2023-03-01T01:18:30;-2.40;99.90
9640;DHT22;51745;50.872;4.732;2023-03-01T01:21:18;-2.60;99.90
9640;DHT22;51745;50.872;4.732;2023-03-01T01:24:06;-2.30;99.90
9640;DHT22;51745;50.872;4.732;2023-03-01T01:26:54;-2.10;99.90
9640;DHT22;51745;50.872;4.732;2023-03-01T01:29:43;-2.10;99.90
9640;DHT22;51745;50.872;4.732;2023-03-01T01:32:31;-2.10;99.90
9640;DHT22;51745;50.872;4.732;2023-03-01T01:35:18;-2.10;99.90
9640;DHT22;51745;50.872;4.732;2023-03-01T01:38:06;-2.10;99.90
9640;DHT22;51745;50.872;4.732;2023-03-01T01:40:54;-2.20;99.90
9640;DHT22;51745;50.872;4.732;2023-03-01T01:43:43;-2.20;99.90
9640;DHT22;51745;50.872;4.732;2023-03-01T01:46:32;-2.20;99.90
9640;DHT22;51745;50.872;4.732;2023-03-01T01:49:23;-2.30;99.90
9640;DHT22;51745;50.872;4.732;2023-03-01T01:52:12;-2.20;99.90
9640;DHT22;51745;50.872;4.732;2023-03-01T01:55:02;-2.30;99.90
9640;DHT22;51745;50.872;4.732;2023-03-01T01:57:51;-2.10;99.90
9640;DHT22;51745;50.872;4.732;2023-03-01T02:00:41;-2.20;99.90
9640;DHT22;51745;50.872;4.732;2023-03-01T02:03:30;-2.10;99.90
9640;DHT22;51745;50.872;4.732;2023-03-01T02:06:21;-2.10;99.90
9640;DHT22;51745;50.872;4.732;2023-03-01T02:09:15;-2.10;99.90
9640;DHT22;51745;50.872;4.732;2023-03-01T02:12:03;-2.20;99.90
9640;DHT22;51745;50.872;4.732;2023-03-01T02:14:53;-2.30;99.90
9640;DHT22;51745;50.872;4.732;2023-03-01T02:17:41;-2.30;99.90
9640;DHT22;51745;50.872;4.732;2023-03-01T02:20:33;-2.30;99.90
9640;DHT22;51745;50.872;4.732;2023-03-01T02:23:22;-2.30;99.90
9640;DHT22;51745;50.872;4.732;2023-03-01T02:26:13;-2.40;99.90
9640;DHT22;51745;50.872;4.732;2023-03-01T02:29:06;-2.40;99.90
9640;DHT22;51745;50.872;4.732;2023-03-01T02:31:54;-2.40;99.90
9640;DHT22;51745;50.872;4.732;2023-03-01T02:34:44;-2.50;99.90
9640;DHT22;51745;50.872;4.732;2023-03-01T02:37:33;-2.50;99.90
9640;DHT22;51745;50.872;4.732;2023-03-01T02:40:22;-2.50;99.90
9640;DHT22;51745;50.872;4.732;2023-03-01T02:43:10;-2.50;99.90
9640;DHT22;51745;50.872;4.732;2023-03-01T02:46:04;-2.50;99.90
9640;DHT22;51745;50.872;4.732;2023-03-01T02:48:53;-2.60;99.90
9640;DHT22;51745;50.872;4.732;2023-03-01T02:51:43;-2.60;99.90
9640;DHT22;51745;50.872;4.732;2023-03-01T02:54:34;-2.70;99.90
9640;DHT22;51745;50.872;4.732;2023-03-01T02:57:24;-2.80;99.90
9640;DHT22;51745;50.872;4.732;2023-03-01T03:00:14;-2.80;99.90
9640;DHT22;51745;50.872;4.732;2023-03-01T03:03:07;-2.90;99.90
9640;DHT22;51745;50.872;4.732;2023-03-01T03:05:58;-2.90;99.90
9640;DHT22;51745;50.872;4.732;2023-03-01T03:08:48;-2.90;99.90
9640;DHT22;51745;50.872;4.732;2023-03-01T03:11:36;-3.00;99.90
9640;DHT22;51745;50.872;4.732;2023-03-01T03:14:25;-3.00;99.90
9640;DHT22;51745;50.872;4.732;2023-03-01T03:17:16;-3.30;99.90
9640;DHT22;51745;50.872;4.732;2023-03-01T03:20:06;-3.00;99.90
9640;DHT22;51745;50.872;4.732;2023-03-01T03:22:57;-3.10;99.90
9640;DHT22;51745;50.872;4.732;2023-03-01T03:25:47;-3.10;99.90
9640;DHT22;51745;50.872;4.732;2023-03-01T03:28:36;-3.10;99.90
9640;DHT22;51745;50.872;4.732;2023-03-01T03:31:26;-3.20;99.90
9640;DHT22;51745;50.872;4.732;2023-03-01T03:34:16;-3.10;99.90
9640;DHT22;51745;50.872;4.732;2023-03-01T03:37:06;-3.10;99.90
9640;DHT22;51745;50.872;4.732;2023-03-01T03:40:18;-3.20;99.90
9640;DHT22;51745;50.872;4.732;2023-03-01T03:43:07;-3.20;99.90
9640;DHT22;51745;50.872;4.732;2023-03-01T03:45:55;-3.20;99.90
9640;DHT22;51745;50.872;4.732;2023-03-01T03:48:45;-3.20;99.90
9640;DHT22;51745;50.872;4.732;2023-03-01T03:51:33;-3.20;99.90
9640;DHT22;51745;50.872;4.732;2023-03-01T03:54:22;-3.10;99.90
9640;DHT22;51745;50.872;4.732;2023-03-01T03:57:11;-3.10;99.90
9640;DHT22;51745;50.872;4.732;2023-03-01T03:59:59;-3.20;99.90
9640;DHT22;51745;50.872;4.732;2023-03-01T04:02:56;-3.10;99.90
9640;DHT22;51745;50.872;4.732;2023-03-01T04:05:45;-3.10;99.90
9640;DHT22;51745;50.872;4.732;2023-03-01T04:08:33;-3.00;99.90
9640;DHT22;51745;50.872;4.732;2023-03-01T04:11:22;-3.00;99.90
9640;DHT22;51745;50.872;4.732;2023-03-01T04:14:16;-2.80;99.90
9640;DHT22;51745;50.872;4.732;2023-03-01T04:17:07;-2.80;99.90
9640;DHT22;51745;50.872;4.732;2023-03-01T04:19:55;-2.70;99.90
9640;DHT22;51745;50.872;4.732;2023-03-01T04:22:45;-2.70;99.90
9640;DHT22;51745;50.872;4.732;2023-03-01T04:25:33;-2.70;99.90
9640;DHT22;51745;50.872;4.732;2023-03-01T04:28:23;-2.80;99.90
9640;DHT22;51745;50.872;4.732;2023-03-01T04:31:12;-2.80;99.90
9640;DHT22;51745;50.872;4.732;2023-03-01T04:34:02;-2.90;99.90
9640;DHT22;51745;50.872;4.732;2023-03-01T04:36:51;-2.80;99.90
9640;DHT22;51745;50.872;4.732;2023-03-01T04:39:40;-2.90;99.90
9640;DHT22;51745;50.872;4.732;2023-03-01T04:42:34;-2.90;99.90
9640;DHT22;51745;50.872;4.732;2023-03-01T04:45:23;-2.90;99.90
9640;DHT22;51745;50.872;4.732;2023-03-01T04:48:11;-3.00;99.90
9640;DHT22;51745;50.872;4.732;2023-03-01T04:50:59;-3.00;99.90
9640;DHT22;51745;50.872;4.732;2023-03-01T04:53:48;-3.00;99.90
9640;DHT22;51745;50.872;4.732;2023-03-01T04:56:36;-3.00;99.90
9640;DHT22;51745;50.872;4.732;2023-03-01T04:59:24;-3.00;99.90
9640;DHT22;51745;50.872;4.732;2023-03-01T05:02:14;-3.00;99.90
9640;DHT22;51745;50.872;4.732;2023-03-01T05:05:02;-2.80;99.90
9640;DHT22;51745;50.872;4.732;2023-03-01T05:07:50;-3.00;99.90
9640;DHT22;51745;50.872;4.732;2023-03-01T05:10:38;-3.10;99.90
9640;DHT22;51745;50.872;4.732;2023-03-01T05:13:27;-3.30;99.90
9640;DHT22;51745;50.872;4.732;2023-03-01T05:16:15;-3.20;99.90
9640;DHT22;51745;50.872;4.732;2023-03-01T05:19:05;-3.30;99.90
9640;DHT22;51745;50.872;4.732;2023-03-01T05:21:58;-3.20;99.90
9640;DHT22;51745;50.872;4.732;2023-03-01T05:24:50;-3.30;99.90
9640;DHT22;51745;50.872;4.732;2023-03-01T05:27:43;-3.30;99.90
9640;DHT22;51745;50.872;4.732;2023-03-01T05:30:32;-3.40;99.90
9640;DHT22;51745;50.872;4.732;2023-03-01T05:33:20;-3.40;99.90
9640;DHT22;51745;50.872;4.732;2023-03-01T05:36:10;-3.40;99.90
9640;DHT22;51745;50.872;4.732;2023-03-01T05:38:58;-3.50;99.90
9640;DHT22;51745;50.872;4.732;2023-03-01T05:41:47;-3.50;99.90
9640;DHT22;51745;50.872;4.732;2023-03-01T05:44:35;-3.50;99.90
9640;DHT22;51745;50.872;4.732;2023-03-01T05:47:23;-3.40;99.90
9640;DHT22;51745;50.872;4.732;2023-03-01T05:50:15;-3.50;99.90
9640;DHT22;51745;50.872;4.732;2023-03-01T05:53:09;-3.50;99.90
9640;DHT22;51745;50.872;4.732;2023-03-01T05:56:02;-3.60;99.90
9640;DHT22;51745;50.872;4.732;2023-03-01T05:58:53;-3.60;99.90
9640;DHT22;51745;50.872;4.732;2023-03-01T06:01:42;-3.60;99.90
9640;DHT22;51745;50.872;4.732;2023-03-01T06:04:30;-3.60;99.90
9640;DHT22;51745;50.872;4.732;2023-03-01T06:07:18;-3.50;99.90
9640;DHT22;51745;50.872;4.732;2023-03-01T06:10:11;-3.40;99.90
9640;DHT22;51745;50.872;4.732;2023-03-01T06:12:59;-3.40;99.90
9640;DHT22;51745;50.872;4.732;2023-03-01T06:15:49;-3.40;99.90
9640;DHT22;51745;50.872;4.732;2023-03-01T06:18:40;-3.30;99.90
9640;DHT22;51745;50.872;4.732;2023-03-01T06:21:29;-3.30;99.90
9640;DHT22;51745;50.872;4.732;2023-03-01T06:24:16;-3.20;99.90
9640;DHT22;51745;50.872;4.732;2023-03-01T06:27:06;-3.20;99.90
9640;DHT22;51745;50.872;4.732;2023-03-01T06:29:54;-3.30;99.90
9640;DHT22;51745;50.872;4.732;2023-03-01T06:32:41;-3.30;99.90
9640;DHT22;51745;50.872;4.732;2023-03-01T06:35:29;-3.30;99.90
9640;DHT22;51745;50.872;4.732;2023-03-01T06:38:17;-3.30;99.90
9640;DHT22;51745;50.872;4.732;2023-03-01T06:41:06;-3.20;99.90
9640;DHT22;51745;50.872;4.732;2023-03-01T06:43:59;-3.20;99.90
9640;DHT22;51745;50.872;4.732;2023-03-01T06:46:47;-3.20;99.90
9640;DHT22;51745;50.872;4.732;2023-03-01T06:49:35;-3.30;99.90
9640;DHT22;51745;50.872;4.732;2023-03-01T06:52:25;-3.20;99.90
9640;DHT22;51745;50.872;4.732;2023-03-01T06:55:13;-3.20;99.90
9640;DHT22;51745;50.872;4.732;2023-03-01T06:58:01;-3.30;99.90
9640;DHT22;51745;50.872;4.732;2023-03-01T07:00:54;-3.30;99.90
9640;DHT22;51745;50.872;4.732;2023-03-01T07:03:43;-3.40;99.90
9640;DHT22;51745;50.872;4.732;2023-03-01T07:06:35;-3.40;99.90
9640;DHT22;51745;50.872;4.732;2023-03-01T07:09:28;-3.40;99.90
9640;DHT22;51745;50.872;4.732;2023-03-01T07:12:16;-3.30;99.90
9640;DHT22;51745;50.872;4.732;2023-03-01T07:15:08;-3.30;99.90
9640;DHT22;51745;50.872;4.732;2023-03-01T07:18:00;-3.30;99.90
9640;DHT22;51745;50.872;4.732;2023-03-01T07:20:47;-3.30;99.90
9640;DHT22;51745;50.872;4.732;2023-03-01T07:23:35;-3.30;99.90
9640;DHT22;51745;50.872;4.732;2023-03-01T07:26:24;-3.10;99.90
9640;DHT22;51745;50.872;4.732;2023-03-01T07:29:13;-3.10;99.90
9640;DHT22;51745;50.872;4.732;2023-03-01T07:32:00;-3.10;99.90
9640;DHT22;51745;50.872;4.732;2023-03-01T07:35:04;-3.00;99.90
9640;DHT22;51745;50.872;4.732;2023-03-01T07:38:08;-2.90;99.90
9640;DHT22;51745;50.872;4.732;2023-03-01T07:40:57;-2.90;99.90
9640;DHT22;51745;50.872;4.732;2023-03-01T07:43:45;-2.80;99.90
9640;DHT22;51745;50.872;4.732;2023-03-01T07:46:33;-2.60;99.90
9640;DHT22;51745;50.872;4.732;2023-03-01T07:49:20;-2.60;99.90
9640;DHT22;51745;50.872;4.732;2023-03-01T07:52:18;-2.50;99.90
9640;DHT22;51745;50.872;4.732;2023-03-01T07:55:07;-2.40;99.90
9640;DHT22;51745;50.872;4.732;2023-03-01T07:57:56;-2.30;99.90
9640;DHT22;51745;50.872;4.732;2023-03-01T08:00:44;-2.30;99.90
9640;DHT22;51745;50.872;4.732;2023-03-01T08:07:51;-2.10;99.90
9640;DHT22;51745;50.872;4.732;2023-03-01T08:10:44;-2.00;99.90
9640;DHT22;51745;50.872;4.732;2023-03-01T08:17:29;-1.90;99.90
9640;DHT22;51745;50.872;4.732;2023-03-01T08:20:22;-1.80;99.90
9640;DHT22;51745;50.872;4.732;2023-03-01T08:23:26;-1.70;99.90
9640;DHT22;51745;50.872;4.732;2023-03-01T08:26:18;-1.50;99.90
9640;DHT22;51745;50.872;4.732;2023-03-01T08:29:10;-1.40;99.90
9640;DHT22;51745;50.872;4.732;2023-03-01T08:31:59;-1.40;99.90
9640;DHT22;51745;50.872;4.732;2023-03-01T08:34:48;-1.20;99.90
9640;DHT22;51745;50.872;4.732;2023-03-01T08:37:36;-1.10;99.90
9640;DHT22;51745;50.872;4.732;2023-03-01T08:40:32;-1.00;99.90
9640;DHT22;51745;50.872;4.732;2023-03-01T08:43:26;-0.90;99.90
9640;DHT22;51745;50.872;4.732;2023-03-01T08:46:21;-0.80;99.90
9640;DHT22;51745;50.872;4.732;2023-03-01T08:49:12;-0.80;99.90
9640;DHT22;51745;50.872;4.732;2023-03-01T08:52:06;-0.70;99.90
9640;DHT22;51745;50.872;4.732;2023-03-01T08:54:54;-0.60;99.90
9640;DHT22;51745;50.872;4.732;2023-03-01T08:57:44;-0.50;99.90
9640;DHT22;51745;50.872;4.732;2023-03-01T09:00:32;-0.50;99.90
9640;DHT22;51745;50.872;4.732;2023-03-01T09:03:21;-0.40;99.90
9640;DHT22;51745;50.872;4.732;2023-03-01T09:06:10;-0.30;99.90
9640;DHT22;51745;50.872;4.732;2023-03-01T09:08:58;-0.30;99.90
9640;DHT22;51745;50.872;4.732;2023-03-01T09:11:46;0.10;99.90
9640;DHT22;51745;50.872;4.732;2023-03-01T09:14:37;-0.10;99.90
9640;DHT22;51745;50.872;4.732;2023-03-01T09:17:28;0.10;99.90
9640;DHT22;51745;50.872;4.732;2023-03-01T09:20:19;0.10;99.90
9640;DHT22;51745;50.872;4.732;2023-03-01T09:23:09;0.10;99.90
9640;DHT22;51745;50.872;4.732;2023-03-01T09:25:57;0.20;99.90
9640;DHT22;51745;50.872;4.732;2023-03-01T09:28:47;0.30;99.90
9640;DHT22;51745;50.872;4.732;2023-03-01T09:31:39;0.50;99.90
9640;DHT22;51745;50.872;4.732;2023-03-01T09:34:26;0.90;99.90
9640;DHT22;51745;50.872;4.732;2023-03-01T09:37:14;1.50;99.90
9640;DHT22;51745;50.872;4.732;2023-03-01T09:40:03;0.70;99.90
9640;DHT22;51745;50.872;4.732;2023-03-01T09:42:53;0.90;99.90
9640;DHT22;51745;50.872;4.732;2023-03-01T09:45:43;-1.60;99.90
9640;DHT22;51745;50.872;4.732;2023-03-01T09:48:40;1.20;99.90
9640;DHT22;51745;50.872;4.732;2023-03-01T09:51:30;1.30;99.90
9640;DHT22;51745;50.872;4.732;2023-03-01T09:54:18;1.40;99.90
9640;DHT22;51745;50.872;4.732;2023-03-01T09:57:14;1.60;99.90
9640;DHT22;51745;50.872;4.732;2023-03-01T10:00:09;1.70;99.90
9640;DHT22;51745;50.872;4.732;2023-03-01T10:03:01;1.80;99.90
9640;DHT22;51745;50.872;4.732;2023-03-01T10:05:55;2.00;99.90
9640;DHT22;51745;50.872;4.732;2023-03-01T10:08:51;2.10;99.90
9640;DHT22;51745;50.872;4.732;2023-03-01T10:11:41;2.50;99.90
9640;DHT22;51745;50.872;4.732;2023-03-01T10:14:32;2.10;99.90
9640;DHT22;51745;50.872;4.732;2023-03-01T10:17:24;2.10;99.90
9640;DHT22;51745;50.872;4.732;2023-03-01T10:20:17;2.30;99.90
9640;DHT22;51745;50.872;4.732;2023-03-01T10:23:10;2.40;99.90
9640;DHT22;51745;50.872;4.732;2023-03-01T10:26:08;2.60;99.90
9640;DHT22;51745;50.872;4.732;2023-03-01T10:28:59;2.80;99.90
9640;DHT22;51745;50.872;4.732;2023-03-01T10:31:52;3.40;99.90
9640;DHT22;51745;50.872;4.732;2023-03-01T10:34:40;2.90;99.90
9640;DHT22;51745;50.872;4.732;2023-03-01T10:37:29;2.80;99.90
9640;DHT22;51745;50.872;4.732;2023-03-01T10:40:18;2.90;99.90
9640;DHT22;51745;50.872;4.732;2023-03-01T10:43:10;2.90;99.90
9640;DHT22;51745;50.872;4.732;2023-03-01T10:45:58;3.00;99.90
9640;DHT22;51745;50.872;4.732;2023-03-01T10:48:46;2.80;99.90
9640;DHT22;51745;50.872;4.732;2023-03-01T10:51:52;3.10;99.90
9640;DHT22;51745;50.872;4.732;2023-03-01T10:54:41;3.20;99.90
9640;DHT22;51745;50.872;4.732;2023-03-01T10:57:49;3.30;99.90
9640;DHT22;51745;50.872;4.732;2023-03-01T11:00:48;3.40;99.90
9640;DHT22;51745;50.872;4.732;2023-03-01T11:03:38;4.30;99.90
9640;DHT22;51745;50.872;4.732;2023-03-01T11:06:26;3.60;99.90
9640;DHT22;51745;50.872;4.732;2023-03-01T11:09:14;3.40;99.90
9640;DHT22;51745;50.872;4.732;2023-03-01T11:12:05;3.60;99.90
9640;DHT22;51745;50.872;4.732;2023-03-01T11:14:54;3.60;99.90
9640;DHT22;51745;50.872;4.732;2023-03-01T11:17:45;3.70;99.90
9640;DHT22;51745;50.872;4.732;2023-03-01T11:20:45;3.80;99.90
9640;DHT22;51745;50.872;4.732;2023-03-01T11:23:33;3.90;99.90
9640;DHT22;51745;50.872;4.732;2023-03-01T11:26:20;3.90;99.90
9640;DHT22;51745;50.872;4.732;2023-03-01T11:29:11;3.90;99.90
9640;DHT22;51745;50.872;4.732;2023-03-01T11:32:03;4.00;99.90
9640;DHT22;51745;50.872;4.732;2023-03-01T11:34:53;4.50;99.90
9640;DHT22;51745;50.872;4.732;2023-03-01T11:37:44;4.20;99.90
9640;DHT22;51745;50.872;4.732;2023-03-01T11:40:37;4.40;99.90
9640;DHT22;51745;50.872;4.732;2023-03-01T11:43:30;4.40;99.90
9640;DHT22;51745;50.872;4.732;2023-03-01T11:49:39;4.50;99.90
9640;DHT22;51745;50.872;4.732;2023-03-01T11:52:35;4.70;99.90
9640;DHT22;51745;50.872;4.732;2023-03-01T11:55:30;4.80;99.90
9640;DHT22;51745;50.872;4.732;2023-03-01T11:58:38;4.50;99.90
9640;DHT22;51745;50.872;4.732;2023-03-01T12:01:34;3.60;99.90
9640;DHT22;51745;50.872;4.732;2023-03-01T12:04:46;5.00;99.90
9640;DHT22;51745;50.872;4.732;2023-03-01T12:07:39;3.80;99.90
9640;DHT22;51745;50.872;4.732;2023-03-01T12:10:31;5.80;99.90
9640;DHT22;51745;50.872;4.732;2023-03-01T12:13:31;5.90;99.90
9640;DHT22;51745;50.872;4.732;2023-03-01T12:16:31;5.90;99.90
9640;DHT22;51745;50.872;4.732;2023-03-01T12:19:33;5.80;99.90
9640;DHT22;51745;50.872;4.732;2023-03-01T12:22:38;5.90;99.90
9640;DHT22;51745;50.872;4.732;2023-03-01T12:25:36;6.70;99.90
9640;DHT22;51745;50.872;4.732;2023-03-01T12:28:35;5.80;99.90
9640;DHT22;51745;50.872;4.732;2023-03-01T12:31:39;5.90;99.90
9640;DHT22;51745;50.872;4.732;2023-03-01T12:34:36;6.40;99.90
9640;DHT22;51745;50.872;4.732;2023-03-01T12:37:29;5.80;99.90
9640;DHT22;51745;50.872;4.732;2023-03-01T12:40:31;6.10;99.90
9640;DHT22;51745;50.872;4.732;2023-03-01T12:43:29;5.80;99.90
9640;DHT22;51745;50.872;4.732;2023-03-01T12:46:22;8.50;99.90
9640;DHT22;51745;50.872;4.732;2023-03-01T12:49:13;8.30;99.90
9640;DHT22;51745;50.872;4.732;2023-03-01T12:52:03;4.30;99.90
9640;DHT22;51745;50.872;4.732;2023-03-01T12:54:56;5.30;99.90
9640;DHT22;51745;50.872;4.732;2023-03-01T12:57:50;5.60;99.90
9640;DHT22;51745;50.872;4.732;2023-03-01T13:00:52;5.60;99.90
9640;DHT22;51745;50.872;4.732;2023-03-01T13:03:53;5.70;99.90
9640;DHT22;51745;50.872;4.732;2023-03-01T13:06:50;7.90;99.90
9640;DHT22;51745;50.872;4.732;2023-03-01T13:09:43;5.60;99.90
9640;DHT22;51745;50.872;4.732;2023-03-01T13:12:42;6.10;99.90
9640;DHT22;51745;50.872;4.732;2023-03-01T13:18:29;5.90;99.90
9640;DHT22;51745;50.872;4.732;2023-03-01T13:21:29;5.90;99.90
9640;DHT22;51745;50.872;4.732;2023-03-01T13:24:23;6.10;99.90
9640;DHT22;51745;50.872;4.732;2023-03-01T13:39:29;7.70;99.90
9640;DHT22;51745;50.872;4.732;2023-03-01T13:45:36;8.50;99.90
9640;DHT22;51745;50.872;4.732;2023-03-01T13:48:26;6.90;99.90
9640;DHT22;51745;50.872;4.732;2023-03-01T13:54:03;3.80;99.90
9640;DHT22;51745;50.872;4.732;2023-03-01T14:02:34;6.80;99.90
9640;DHT22;51745;50.872;4.732;2023-03-01T14:05:26;6.90;99.90
9640;DHT22;51745;50.872;4.732;2023-03-01T14:08:18;7.30;99.90
9640;DHT22;51745;50.872;4.732;2023-03-01T14:14:22;6.90;99.90
9640;DHT22;51745;50.872;4.732;2023-03-01T14:17:27;7.10;99.90
9640;DHT22;51745;50.872;4.732;2023-03-01T14:20:23;7.40;99.90
9640;DHT22;51745;50.872;4.732;2023-03-01T14:23:12;7.70;99.90
9640;DHT22;51745;50.872;4.732;2023-03-01T14:26:00;8.50;99.90
9640;DHT22;51745;50.872;4.732;2023-03-01T14:28:50;8.80;99.90
9640;DHT22;51745;50.872;4.732;2023-03-01T14:31:42;7.90;99.90
9640;DHT22;51745;50.872;4.732;2023-03-01T14:34:42;9.80;99.90
9640;DHT22;51745;50.872;4.732;2023-03-01T14:37:32;7.50;99.90
9640;DHT22;51745;50.872;4.732;2023-03-01T14:40:21;5.10;99.90
9640;DHT22;51745;50.872;4.732;2023-03-01T14:43:13;7.40;99.90
9640;DHT22;51745;50.872;4.732;2023-03-01T14:46:05;7.40;99.90
9640;DHT22;51745;50.872;4.732;2023-03-01T14:48:55;7.30;99.90
9640;DHT22;51745;50.872;4.732;2023-03-01T14:51:49;7.60;99.90
9640;DHT22;51745;50.872;4.732;2023-03-01T14:57:28;7.70;99.40
9640;DHT22;51745;50.872;4.732;2023-03-01T15:00:16;7.60;99.90
9640;DHT22;51745;50.872;4.732;2023-03-01T15:03:07;7.80;99.20
9640;DHT22;51745;50.872;4.732;2023-03-01T15:06:00;8.10;99.40
9640;DHT22;51745;50.872;4.732;2023-03-01T15:08:51;8.00;99.30
9640;DHT22;51745;50.872;4.732;2023-03-01T15:11:39;7.50;98.70
9640;DHT22;51745;50.872;4.732;2023-03-01T15:17:22;7.40;98.50
9640;DHT22;51745;50.872;4.732;2023-03-01T15:20:15;7.40;98.10
9640;DHT22;51745;50.872;4.732;2023-03-01T15:23:12;7.20;98.90
9640;DHT22;51745;50.872;4.732;2023-03-01T15:26:03;6.70;99.50
9640;DHT22;51745;50.872;4.732;2023-03-01T15:28:51;6.60;99.90
9640;DHT22;51745;50.872;4.732;2023-03-01T15:31:40;6.50;99.60
9640;DHT22;51745;50.872;4.732;2023-03-01T15:34:32;6.40;99.90
9640;DHT22;51745;50.872;4.732;2023-03-01T15:37:38;6.50;99.90
9640;DHT22;51745;50.872;4.732;2023-03-01T15:40:27;6.60;99.90
9640;DHT22;51745;50.872;4.732;2023-03-01T15:46:25;6.50;99.90
9640;DHT22;51745;50.872;4.732;2023-03-01T15:49:24;6.60;99.90
9640;DHT22;51745;50.872;4.732;2023-03-01T15:52:15;4.90;99.90
9640;DHT22;51745;50.872;4.732;2023-03-01T15:55:14;6.40;99.90
9640;DHT22;51745;50.872;4.732;2023-03-01T15:58:03;6.40;99.90
9640;DHT22;51745;50.872;4.732;2023-03-01T16:00:53;6.50;99.90
9640;DHT22;51745;50.872;4.732;2023-03-01T16:03:47;7.70;99.90
9640;DHT22;51745;50.872;4.732;2023-03-01T16:06:35;6.40;99.90
9640;DHT22;51745;50.872;4.732;2023-03-01T16:09:28;6.60;99.90
9640;DHT22;51745;50.872;4.732;2023-03-01T16:12:19;4.40;99.90
9640;DHT22;51745;50.872;4.732;2023-03-01T16:15:12;6.30;99.90
9640;DHT22;51745;50.872;4.732;2023-03-01T16:18:01;5.20;99.90
9640;DHT22;51745;50.872;4.732;2023-03-01T16:20:52;6.10;99.90
9640;DHT22;51745;50.872;4.732;2023-03-01T16:23:40;6.00;99.90
9640;DHT22;51745;50.872;4.732;2023-03-01T16:26:33;6.30;99.90
9640;DHT22;51745;50.872;4.732;2023-03-01T16:29:21;6.20;99.90
9640;DHT22;51745;50.872;4.732;2023-03-01T16:32:09;5.90;99.90
9640;DHT22;51745;50.872;4.732;2023-03-01T16:34:57;5.80;99.90
9640;DHT22;51745;50.872;4.732;2023-03-01T16:37:44;5.80;99.90
9640;DHT22;51745;50.872;4.732;2023-03-01T16:40:32;7.40;99.90
9640;DHT22;51745;50.872;4.732;2023-03-01T16:43:21;5.60;99.90
9640;DHT22;51745;50.872;4.732;2023-03-01T16:46:10;6.10;99.90
9640;DHT22;51745;50.872;4.732;2023-03-01T16:48:58;5.50;99.90
9640;DHT22;51745;50.872;4.732;2023-03-01T16:51:46;7.30;99.90
9640;DHT22;51745;50.872;4.732;2023-03-01T16:54:42;5.40;99.90
9640;DHT22;51745;50.872;4.732;2023-03-01T16:57:35;5.70;99.90
9640;DHT22;51745;50.872;4.732;2023-03-01T17:00:24;5.80;99.90
9640;DHT22;51745;50.872;4.732;2023-03-01T17:03:12;5.70;99.90
9640;DHT22;51745;50.872;4.732;2023-03-01T17:06:07;5.60;99.90
9640;DHT22;51745;50.872;4.732;2023-03-01T17:08:54;5.00;99.90
9640;DHT22;51745;50.872;4.732;2023-03-01T17:11:42;5.10;99.90
9640;DHT22;51745;50.872;4.732;2023-03-01T17:14:30;5.00;99.90
9640;DHT22;51745;50.872;4.732;2023-03-01T17:17:18;5.30;99.90
9640;DHT22;51745;50.872;4.732;2023-03-01T17:20:07;5.00;99.90
9640;DHT22;51745;50.872;4.732;2023-03-01T17:22:56;4.60;99.90
9640;DHT22;51745;50.872;4.732;2023-03-01T17:25:44;4.60;99.90
9640;DHT22;51745;50.872;4.732;2023-03-01T17:28:32;4.50;99.90
9640;DHT22;51745;50.872;4.732;2023-03-01T17:31:20;4.80;99.90
9640;DHT22;51745;50.872;4.732;2023-03-01T17:34:09;2.60;99.90
9640;DHT22;51745;50.872;4.732;2023-03-01T17:36:56;4.10;99.90
9640;DHT22;51745;50.872;4.732;2023-03-01T17:39:44;4.00;99.90
9640;DHT22;51745;50.872;4.732;2023-03-01T17:42:31;3.90;99.90
9640;DHT22;51745;50.872;4.732;2023-03-01T17:45:19;3.80;99.90
9640;DHT22;51745;50.872;4.732;2023-03-01T17:48:07;3.70;99.90
9640;DHT22;51745;50.872;4.732;2023-03-01T17:50:56;3.70;99.90
9640;DHT22;51745;50.872;4.732;2023-03-01T17:53:43;3.60;99.90
9640;DHT22;51745;50.872;4.732;2023-03-01T17:56:33;3.50;99.90
9640;DHT22;51745;50.872;4.732;2023-03-01T17:59:24;3.40;99.90
9640;DHT22;51745;50.872;4.732;2023-03-01T18:02:19;3.10;99.90
9640;DHT22;51745;50.872;4.732;2023-03-01T18:05:07;3.10;99.90
9640;DHT22;51745;50.872;4.732;2023-03-01T18:07:56;3.20;99.90
9640;DHT22;51745;50.872;4.732;2023-03-01T18:10:44;3.00;99.90
9640;DHT22;51745;50.872;4.732;2023-03-01T18:13:35;2.80;99.90
9640;DHT22;51745;50.872;4.732;2023-03-01T18:16:23;2.50;99.90
9640;DHT22;51745;50.872;4.732;2023-03-01T18:19:12;2.20;99.90
9640;DHT22;51745;50.872;4.732;2023-03-01T18:21:59;2.00;99.90
9640;DHT22;51745;50.872;4.732;2023-03-01T18:24:49;1.70;99.90
9640;DHT22;51745;50.872;4.732;2023-03-01T18:27:37;2.10;99.90
9640;DHT22;51745;50.872;4.732;2023-03-01T18:30:25;1.90;99.90
9640;DHT22;51745;50.872;4.732;2023-03-01T18:33:14;2.20;99.90
9640;DHT22;51745;50.872;4.732;2023-03-01T18:36:04;2.70;99.90
9640;DHT22;51745;50.872;4.732;2023-03-01T18:38:52;2.70;99.90
9640;DHT22;51745;50.872;4.732;2023-03-01T18:41:43;3.80;99.90
9640;DHT22;51745;50.872;4.732;2023-03-01T18:44:31;2.40;99.90
9640;DHT22;51745;50.872;4.732;2023-03-01T18:47:20;2.30;99.90
9640;DHT22;51745;50.872;4.732;2023-03-01T18:50:08;2.10;99.90
9640;DHT22;51745;50.872;4.732;2023-03-01T18:52:56;2.10;99.90
9640;DHT22;51745;50.872;4.732;2023-03-01T18:55:43;2.00;99.90
9640;DHT22;51745;50.872;4.732;2023-03-01T18:58:33;1.70;99.90
9640;DHT22;51745;50.872;4.732;2023-03-01T19:01:22;2.00;99.90
9640;DHT22;51745;50.872;4.732;2023-03-01T19:04:10;2.10;99.90
9640;DHT22;51745;50.872;4.732;2023-03-01T19:06:58;1.80;99.90
9640;DHT22;51745;50.872;4.732;2023-03-01T19:09:48;3.80;99.90
9640;DHT22;51745;50.872;4.732;2023-03-01T19:12:38;4.20;99.90
9640;DHT22;51745;50.872;4.732;2023-03-01T19:15:28;1.80;99.90
9640;DHT22;51745;50.872;4.732;2023-03-01T19:18:15;2.00;99.90